This is the latest recevied weather packets stored in our database for station/object SQ9MHX-13. If no packets are shown the sender has not sent any weather packets the latest 10 day(s).
| Time | Temp. | Humidity | Pressure | Rain* | Wind** | Luminosity | Snow |
|---|---|---|---|---|---|---|---|
| 1778080021 | 25° C | 37% | 941 hPa | - | 0 m/s | - | - |
| 1778079722 | 25° C | 36% | 940.3 hPa | - | 0 m/s | - | - |
| 1778078824 | 26.11° C | 35% | 940.7 hPa | - | 0 m/s | - | - |
| 1778077926 | 23.89° C | 39% | 942.4 hPa | - | 0 m/s | - | - |
| 1778077627 | 23.89° C | 37% | 942.2 hPa | - | 0 m/s | - | - |
| 1778077029 | 23.89° C | 38% | 940.1 hPa | - | 0 m/s | - | - |
| 1778076131 | 27.22° C | 34% | 938.1 hPa | - | 0 m/s | - | - |
| 1778075233 | 23.89° C | 37% | 941.8 hPa | - | 0 m/s | - | - |
| 1778074934 | 25° C | 37% | 941.4 hPa | - | 0 m/s | - | - |
| 1778074634 | 23.89° C | 39% | 940.2 hPa | - | 0 m/s | - | - |
| 1778074335 | 26.11° C | 37% | 938 hPa | - | 0 m/s | - | - |
| 1778074036 | 27.22° C | 35% | 937.9 hPa | - | 0 m/s | - | - |
| 1778073736 | 26.11° C | 34% | 937.9 hPa | - | 0 m/s | - | - |
| 1778073137 | 26.11° C | 36% | 938.8 hPa | - | 0 m/s | - | - |
| 1778072838 | 26.11° C | 36% | 938.6 hPa | - | 0 m/s | - | - |
| 1778072538 | 27.22° C | 35% | 938.4 hPa | - | 0 m/s | - | - |
| 1778072239 | 26.11° C | 37% | 938.7 hPa | - | 0 m/s | - | - |
| 1778071641 | 26.11° C | 35% | 939.2 hPa | - | 0 m/s | - | - |
| 1778071341 | 26.11° C | 36% | 939.3 hPa | - | 0 m/s | - | - |
| 1778071042 | 26.11° C | 33% | 939.6 hPa | - | 0 m/s | - | - |
| 1778070743 | 26.11° C | 35% | 939.6 hPa | - | 0 m/s | - | - |
| 1778070443 | 26.11° C | 36% | 939.1 hPa | - | 0 m/s | - | - |
| 1778070144 | 26.11° C | 37% | 939.1 hPa | - | 0 m/s | - | - |
| 1778069844 | 26.11° C | 36% | 939.7 hPa | - | 0 m/s | - | - |
| 1778069246 | 25° C | 38% | 941.3 hPa | - | 0 m/s | - | - |
* Rain since midnight (hover to see other rain measurements)
** Current wind speed in m/s (hover to see current wind gust speed)